CheckWX is a tool to help pilots better visualize weather data.  It is not intended as a substitute for an official pre-flight weather briefing.

22:59:34 UTC

ROAH METAR
Naha Airport
Naha, Japan
Current

30 mins ago

ROAH 192230Z 18018KT 8000 -SHRA FEW015 BKN025 BKN045 29/26 Q1007 RMK 1CU015 5CU025 6SC045 A2974
Observed
Jul-19 @ 22:30 UTC
Wind
  • 180° at 18 KTS
Visibility
8,000 meters
Flight Rules
MVFR
Conditions
Light Rain
Cloud Levels
  • Few at 1,500' AGL
  • Broken at 2,500' AGL
  • Broken at 4,500' AGL
Temperature
29°C / 84°F
Dewpoint
26°C / 79°F
Heat Index
36°C / 96°F
Humidity
84%
Altimeter
29.73" Hg
Pressure
1006.92 hPa
Previous

60 mins ago

ROAH 192200Z 18019KT 9999 FEW015 BKN020 BKN045 29/26 Q1006 RMK 2CU015 5CU020 6SC045 A2972
Observed
Jul-19 @ 22:00 UTC
Wind
  • 180° at 19 KTS
Visibility
10,000+ meters
Flight Rules
MVFR
Cloud Levels
  • Few at 1,500' AGL
  • Broken at 2,000' AGL
  • Broken at 4,500' AGL
Temperature
29°C / 84°F
Dewpoint
26°C / 79°F
Heat Index
36°C / 96°F
Humidity
84%
Altimeter
29.7" Hg
Pressure
1005.92 hPa
Previous

1 hour ago

ROAH 192130Z 18020KT 8000 -SHRA FEW015 SCT025 BKN045 29/26 Q1006 RMK 2CU015 3CU025 6SC045 A2971
Observed
Jul-19 @ 21:30 UTC
Wind
  • 180° at 20 KTS
Visibility
8,000 meters
Flight Rules
MVFR
Conditions
Light Rain
Cloud Levels
  • Few at 1,500' AGL
  • Scattered at 2,500' AGL
  • Broken at 4,500' AGL
Temperature
29°C / 84°F
Dewpoint
26°C / 79°F
Heat Index
36°C / 96°F
Humidity
84%
Altimeter
29.7" Hg
Pressure
1005.92 hPa